createdAt,value
2018-12-06T00:00:45.354Z,12.30
2018-12-06T00:03:14.054Z,16.87
2018-12-06T00:05:42.798Z,11.43
2018-12-06T00:08:17.221Z,15.80
2018-12-06T00:11:21.573Z,11.57
2018-12-06T00:13:50.373Z,16.97
2018-12-06T00:16:19.159Z,11.40
2018-12-06T00:18:58.024Z,13.90
2018-12-06T00:21:26.823Z,13.33
2018-12-06T00:23:55.493Z,14.93
2018-12-06T00:26:24.262Z,13.07
2018-12-06T00:28:52.916Z,10.33
2018-12-06T00:31:21.982Z,9.30
2018-12-06T00:33:50.997Z,16.60
2018-12-06T00:36:19.772Z,10.20
2018-12-06T00:38:49.432Z,12.40
2018-12-06T00:41:18.101Z,13.03
2018-12-06T00:43:46.798Z,10.97
2018-12-06T00:46:15.618Z,14.17
2018-12-06T00:48:44.302Z,16.00
2018-12-06T00:51:13.039Z,13.30
2018-12-06T00:53:41.832Z,9.07
2018-12-06T00:56:10.563Z,9.63
2018-12-06T00:58:39.328Z,10.57
2018-12-06T01:01:08.124Z,10.00
2018-12-06T01:03:36.986Z,11.83
2018-12-06T01:06:05.818Z,16.60
2018-12-06T01:08:34.567Z,11.93
2018-12-06T01:11:03.424Z,13.70
2018-12-06T01:13:32.075Z,8.60
2018-12-06T01:16:00.818Z,15.73
2018-12-06T01:18:29.524Z,10.80
2018-12-06T01:20:58.275Z,16.67
2018-12-06T01:23:27.058Z,11.53
2018-12-06T01:25:55.753Z,7.60
2018-12-06T01:28:24.470Z,10.07
2018-12-06T01:30:53.248Z,13.63
2018-12-06T01:33:22.010Z,8.73
2018-12-06T01:35:50.787Z,10.60
2018-12-06T01:38:19.511Z,14.83
2018-12-06T01:40:48.306Z,9.63
2018-12-06T01:43:16.975Z,10.43
2018-12-06T01:45:45.736Z,9.87
2018-12-06T01:48:14.633Z,14.87
2018-12-06T01:50:43.342Z,10.03
2018-12-06T01:53:12.098Z,14.30
2018-12-06T01:55:41.146Z,11.73
2018-12-06T01:58:10.008Z,22.43
2018-12-06T02:00:39.834Z,11.30
2018-12-06T02:03:08.609Z,9.57
2018-12-06T02:05:37.302Z,7.23
2018-12-06T02:08:06.027Z,12.97
2018-12-06T02:10:34.762Z,8.57
2018-12-06T02:13:03.483Z,12.00
2018-12-06T02:15:32.235Z,8.53
2018-12-06T02:18:00.898Z,8.20
2018-12-06T02:20:29.659Z,13.93
2018-12-06T02:22:58.421Z,10.83
2018-12-06T02:25:27.153Z,12.03
2018-12-06T02:27:56.078Z,14.63
2018-12-06T02:30:24.923Z,10.13
2018-12-06T02:32:53.629Z,9.20
2018-12-06T02:35:22.440Z,12.57
2018-12-06T02:37:51.266Z,10.43
2018-12-06T02:40:20.023Z,11.93
2018-12-06T02:42:48.689Z,11.93
2018-12-06T02:45:17.487Z,11.80
2018-12-06T02:47:46.226Z,8.80
2018-12-06T02:50:14.968Z,9.17
2018-12-06T02:52:43.677Z,12.67
2018-12-06T02:55:12.500Z,12.20
2018-12-06T02:57:41.206Z,12.30
2018-12-06T03:00:09.992Z,8.53
2018-12-06T03:02:40.399Z,12.47
2018-12-06T03:05:09.266Z,10.73
2018-12-06T03:07:38.435Z,15.07
2018-12-06T03:10:07.581Z,12.43
2018-12-06T03:12:36.572Z,10.63
2018-12-06T03:15:05.922Z,17.70
2018-12-06T03:17:34.718Z,9.47
2018-12-06T03:20:04.580Z,14.37
2018-12-06T03:22:33.359Z,14.53
2018-12-06T03:25:02.217Z,10.33
2018-12-06T03:27:31.034Z,10.17
2018-12-06T03:29:59.732Z,8.23
2018-12-06T03:32:28.439Z,21.83
2018-12-06T03:34:57.108Z,14.33
2018-12-06T03:37:25.896Z,10.70
2018-12-06T03:39:54.882Z,16.63
2018-12-06T03:42:23.795Z,14.40
2018-12-06T03:44:52.568Z,10.77
2018-12-06T03:47:21.339Z,11.50
2018-12-06T03:49:50.144Z,6.87
2018-12-06T03:52:18.859Z,12.53
2018-12-06T03:54:47.574Z,11.50
2018-12-06T03:57:16.348Z,9.63
2018-12-06T03:59:45.163Z,7.97
2018-12-06T04:02:13.926Z,10.03
2018-12-06T04:04:43.742Z,10.73
2018-12-06T04:07:12.471Z,15.77
2018-12-06T04:09:41.144Z,9.07
2018-12-06T04:12:09.938Z,10.37
2018-12-06T04:14:38.747Z,13.30
2018-12-06T04:17:07.484Z,18.50
2018-12-06T04:19:36.334Z,11.63
2018-12-06T04:22:05.055Z,14.30
2018-12-06T04:24:33.740Z,10.70
2018-12-06T04:27:02.530Z,16.23
2018-12-06T04:29:31.184Z,15.27
2018-12-06T04:31:59.970Z,15.73
2018-12-06T04:34:28.623Z,12.70
2018-12-06T04:36:57.367Z,12.77
2018-12-06T04:39:26.017Z,8.77
2018-12-06T04:41:54.796Z,11.47
2018-12-06T04:44:23.586Z,11.80
2018-12-06T04:46:52.283Z,12.63
2018-12-06T04:49:20.940Z,13.40
2018-12-06T04:51:49.795Z,10.27
2018-12-06T04:54:18.469Z,15.87
2018-12-06T04:56:47.130Z,10.27
2018-12-06T04:59:15.892Z,16.10
2018-12-06T05:01:44.706Z,12.87
2018-12-06T05:04:13.796Z,12.33
2018-12-06T05:06:42.563Z,12.33
2018-12-06T05:09:11.288Z,12.70
2018-12-06T05:11:40.049Z,12.57
2018-12-06T05:14:08.787Z,13.53
2018-12-06T05:16:37.510Z,17.73
2018-12-06T05:19:06.272Z,18.23
2018-12-06T05:21:35.038Z,13.50
2018-12-06T05:24:03.822Z,14.67
2018-12-06T05:26:32.542Z,15.20
2018-12-06T05:29:01.334Z,11.07
2018-12-06T05:31:30.049Z,13.20
2018-12-06T05:33:58.783Z,9.83
2018-12-06T05:36:27.506Z,13.33
2018-12-06T05:38:56.146Z,15.97
2018-12-06T05:41:24.899Z,15.40
2018-12-06T05:43:53.615Z,12.93
2018-12-06T05:46:22.265Z,15.30
2018-12-06T05:48:51.059Z,16.20
2018-12-06T05:51:19.774Z,15.13
2018-12-06T05:53:48.599Z,19.60
2018-12-06T05:56:17.334Z,17.70
2018-12-06T05:58:46.138Z,11.60
2018-12-06T06:01:14.892Z,15.07
2018-12-06T06:03:43.652Z,15.73
2018-12-06T06:06:12.408Z,14.87
2018-12-06T06:08:41.129Z,16.43
2018-12-06T06:11:09.943Z,21.13
2018-12-06T06:13:38.769Z,18.37
2018-12-06T06:16:07.567Z,13.40
2018-12-06T06:18:36.235Z,16.30
2018-12-06T06:21:05.084Z,11.20
2018-12-06T06:23:33.786Z,16.40
2018-12-06T06:26:02.570Z,15.70
2018-12-06T06:28:31.276Z,21.30
2018-12-06T06:30:59.986Z,16.03
2018-12-06T06:33:28.779Z,18.37
2018-12-06T06:35:57.569Z,19.57
2018-12-06T06:38:26.344Z,23.13
2018-12-06T06:40:55.069Z,16.20
2018-12-06T06:43:23.803Z,20.13
2018-12-06T06:45:52.615Z,18.40
2018-12-06T06:48:21.464Z,16.20
2018-12-06T06:50:50.260Z,20.10
2018-12-06T06:53:19.054Z,17.80
2018-12-06T06:55:47.828Z,16.43
2018-12-06T06:58:16.623Z,17.03
2018-12-06T07:00:45.386Z,18.70
2018-12-06T07:03:14.191Z,16.93
2018-12-06T07:05:42.975Z,18.97
2018-12-06T07:08:11.671Z,19.30
2018-12-06T07:10:40.394Z,19.33
2018-12-06T07:15:44.352Z,23.33
2018-12-06T07:18:13.025Z,21.10
2018-12-06T07:20:41.816Z,19.20
2018-12-06T07:23:10.598Z,20.70
2018-12-06T07:25:46.038Z,18.90
2018-12-06T07:28:10.134Z,18.93
2018-12-06T07:30:38.870Z,23.57
2018-12-06T07:33:07.599Z,19.03
2018-12-06T07:35:36.395Z,19.90
2018-12-06T07:38:05.219Z,18.53
2018-12-06T07:40:34.170Z,20.97
2018-12-06T07:43:02.941Z,39.07
2018-12-06T07:45:31.868Z,16.87
2018-12-06T07:48:00.704Z,19.60
2018-12-06T07:50:29.490Z,21.83
2018-12-06T07:52:58.328Z,23.33
2018-12-06T07:55:27.083Z,23.87
2018-12-06T07:57:55.892Z,23.57
2018-12-06T08:00:24.742Z,23.73
2018-12-06T08:02:53.567Z,34.37
2018-12-06T08:05:22.372Z,30.90
2018-12-06T08:07:51.207Z,26.13
2018-12-06T08:10:20.015Z,25.07
2018-12-06T08:12:48.840Z,37.50
2018-12-06T08:15:17.592Z,27.40
2018-12-06T08:17:46.634Z,28.20
2018-12-06T08:20:15.456Z,28.23
2018-12-06T08:22:44.297Z,23.93
2018-12-06T08:25:12.967Z,21.53
2018-12-06T08:27:41.734Z,25.83
2018-12-06T08:30:10.523Z,24.37
2018-12-06T08:32:39.259Z,28.63
2018-12-06T08:35:08.061Z,22.97
2018-12-06T08:37:36.822Z,22.47
2018-12-06T08:40:06.573Z,22.93
2018-12-06T08:42:35.375Z,29.03
2018-12-06T08:45:04.247Z,18.73
2018-12-06T08:47:33.074Z,20.23
2018-12-06T08:50:01.863Z,21.43
2018-12-06T08:52:30.570Z,22.47
2018-12-06T08:54:59.399Z,24.30
2018-12-06T08:57:28.176Z,26.00
2018-12-06T08:59:56.881Z,25.13
2018-12-06T09:02:25.580Z,23.20
2018-12-06T09:04:54.362Z,21.97
2018-12-06T09:07:29.151Z,30.77
2018-12-06T09:09:57.859Z,26.93
2018-12-06T09:12:26.703Z,32.43
2018-12-06T09:14:55.430Z,27.70
2018-12-06T09:17:24.256Z,31.77
2018-12-06T09:19:53.140Z,25.13
2018-12-06T09:22:21.972Z,23.83
2018-12-06T09:24:51.016Z,40.20
2018-12-06T09:27:19.766Z,42.43
2018-12-06T09:29:48.604Z,28.40
2018-12-06T09:32:17.368Z,30.00
2018-12-06T09:34:46.209Z,25.80
2018-12-06T09:37:15.014Z,30.80
2018-12-06T09:39:55.702Z,32.90
2018-12-06T09:42:24.575Z,32.87
2018-12-06T09:44:53.298Z,43.50
2018-12-06T09:47:22.089Z,33.80
2018-12-06T09:49:50.853Z,30.10
2018-12-06T09:52:19.614Z,31.10
2018-12-06T09:54:48.370Z,34.03
2018-12-06T09:57:17.186Z,32.57
2018-12-06T09:59:46.931Z,34.83
2018-12-06T10:02:15.920Z,34.77
2018-12-06T10:04:44.641Z,34.63
2018-12-06T10:07:13.371Z,30.70
2018-12-06T10:09:42.183Z,33.37
2018-12-06T10:12:10.970Z,39.63
2018-12-06T10:14:39.746Z,41.47
2018-12-06T10:17:08.542Z,38.17
2018-12-06T10:19:37.260Z,36.73
2018-12-06T10:22:06.111Z,37.80
2018-12-06T10:24:34.908Z,37.73
2018-12-06T10:27:03.788Z,38.53
2018-12-06T10:29:32.583Z,37.13
2018-12-06T10:32:01.379Z,35.73
2018-12-06T10:34:30.173Z,37.80
2018-12-06T10:36:58.847Z,38.57
2018-12-06T10:39:27.716Z,42.20
2018-12-06T10:41:56.467Z,37.70
2018-12-06T10:44:30.901Z,48.57
2018-12-06T10:46:59.738Z,35.67
2018-12-06T10:49:29.642Z,37.30
2018-12-06T10:51:58.472Z,39.20
2018-12-06T10:54:27.209Z,36.33
2018-12-06T10:56:56.032Z,37.27
2018-12-06T10:59:24.776Z,44.47
2018-12-06T11:01:58.973Z,35.63
2018-12-06T11:04:35.719Z,36.03
2018-12-06T11:07:06.024Z,33.50
2018-12-06T11:09:34.756Z,39.67
2018-12-06T11:12:03.515Z,37.23
2018-12-06T11:14:32.382Z,35.17
2018-12-06T11:17:01.166Z,32.83
2018-12-06T11:19:29.915Z,42.10
2018-12-06T11:21:58.679Z,36.10
2018-12-06T11:24:27.418Z,37.17
2018-12-06T11:26:56.244Z,41.67
2018-12-06T11:29:24.938Z,40.20
2018-12-06T11:31:53.964Z,38.23
2018-12-06T11:34:22.600Z,36.13
2018-12-06T11:36:51.359Z,32.77
2018-12-06T11:39:20.106Z,35.63
2018-12-06T11:41:48.922Z,32.90
2018-12-06T11:44:17.621Z,28.50
2018-12-06T11:46:46.394Z,35.03
2018-12-06T11:49:15.011Z,30.90
2018-12-06T11:51:43.738Z,32.13
2018-12-06T11:54:12.485Z,32.33
2018-12-06T11:56:41.271Z,32.60
2018-12-06T11:59:10.043Z,31.33
2018-12-06T12:01:38.867Z,30.50
2018-12-06T12:04:07.591Z,30.67
2018-12-06T12:06:36.460Z,30.43
2018-12-06T12:09:07.675Z,31.23
2018-12-06T12:11:36.462Z,33.30
2018-12-06T12:14:07.172Z,31.20
2018-12-06T12:16:35.975Z,38.50
2018-12-06T12:19:04.792Z,38.83
2018-12-06T12:21:33.590Z,30.63
2018-12-06T12:24:02.246Z,33.27
2018-12-06T12:26:31.064Z,37.93
2018-12-06T12:28:59.819Z,33.77
2018-12-06T12:31:28.627Z,32.40
2018-12-06T12:33:57.293Z,31.73
2018-12-06T12:36:26.036Z,30.90
2018-12-06T12:38:54.702Z,33.53
2018-12-06T12:41:23.424Z,34.57
2018-12-06T12:43:52.081Z,28.90
2018-12-06T12:46:20.787Z,27.90
2018-12-06T12:48:49.490Z,33.83
2018-12-06T12:51:18.267Z,31.70
2018-12-06T12:53:47.035Z,30.53
2018-12-06T12:56:15.824Z,29.63
2018-12-06T12:58:44.622Z,27.87
2018-12-06T13:01:13.383Z,29.67
2018-12-06T13:03:42.196Z,28.70
2018-12-06T13:06:12.022Z,30.57
2018-12-06T13:08:40.797Z,28.40
2018-12-06T13:11:09.670Z,38.60
2018-12-06T13:13:38.399Z,32.67
2018-12-06T13:16:07.177Z,36.80
2018-12-06T13:18:35.971Z,31.10
2018-12-06T13:21:04.763Z,34.40
2018-12-06T13:23:33.762Z,35.47
2018-12-06T13:26:02.528Z,34.67
2018-12-06T13:28:31.342Z,32.20
2018-12-06T13:31:00.232Z,33.10
2018-12-06T13:33:29.025Z,33.47
2018-12-06T13:35:57.809Z,32.43
2018-12-06T13:38:26.594Z,36.17
2018-12-06T13:40:55.371Z,33.80
2018-12-06T13:43:24.162Z,28.90
2018-12-06T13:45:52.885Z,31.60
2018-12-06T13:48:21.706Z,38.40
2018-12-06T13:50:50.478Z,32.67
2018-12-06T13:53:19.612Z,39.30
2018-12-06T13:55:48.355Z,33.00
2018-12-06T13:58:17.152Z,40.33
2018-12-06T14:00:46.150Z,32.53
2018-12-06T14:03:15.065Z,35.73
2018-12-06T14:05:43.778Z,34.73
2018-12-06T14:08:12.524Z,35.83
2018-12-06T14:10:41.320Z,37.63
2018-12-06T14:13:10.126Z,37.97
2018-12-06T14:15:38.890Z,39.77
2018-12-06T14:18:07.575Z,42.77
2018-12-06T14:20:36.328Z,39.37
2018-12-06T14:23:05.133Z,52.47
2018-12-06T14:25:33.867Z,39.30
2018-12-06T14:28:02.600Z,47.47
2018-12-06T14:30:31.396Z,44.97
2018-12-06T14:33:00.166Z,45.47
2018-12-06T14:35:28.991Z,44.33
2018-12-06T14:37:57.751Z,47.67
2018-12-06T14:40:26.485Z,46.47
2018-12-06T14:42:55.427Z,52.87
2018-12-06T14:45:24.500Z,50.70
2018-12-06T14:47:53.208Z,45.33
2018-12-06T14:50:22.010Z,51.73
2018-12-06T14:52:50.857Z,47.10
2018-12-06T14:55:19.673Z,46.03
2018-12-06T14:57:48.423Z,49.20
2018-12-06T15:00:17.216Z,42.23
2018-12-06T15:02:45.979Z,56.53
2018-12-06T15:05:15.207Z,49.50
2018-12-06T15:07:44.035Z,43.47
2018-12-06T15:10:12.824Z,50.17
2018-12-06T15:12:41.621Z,40.13
2018-12-06T15:15:10.508Z,39.77
2018-12-06T15:17:39.227Z,44.80
2018-12-06T15:20:07.969Z,40.60
2018-12-06T15:22:36.737Z,46.90
2018-12-06T15:25:06.619Z,46.13
2018-12-06T15:27:35.746Z,44.10
2018-12-06T15:30:05.676Z,43.33
2018-12-06T15:32:34.419Z,49.17
2018-12-06T15:35:03.217Z,44.13
2018-12-06T15:37:31.965Z,44.80
2018-12-06T15:40:00.839Z,53.57
2018-12-06T15:42:30.763Z,47.07
2018-12-06T15:44:59.578Z,46.30
2018-12-06T15:47:28.391Z,38.70
2018-12-06T15:49:57.131Z,40.67
2018-12-06T15:52:25.898Z,36.73
2018-12-06T15:54:54.691Z,37.50
2018-12-06T15:57:24.167Z,33.40
2018-12-06T15:59:52.970Z,37.47
2018-12-06T16:02:21.802Z,35.00
2018-12-06T16:04:50.579Z,31.73
2018-12-06T16:07:19.337Z,38.67
2018-12-06T16:09:48.077Z,34.97
2018-12-06T16:12:16.882Z,36.20
2018-12-06T16:14:45.675Z,34.77
2018-12-06T16:17:14.376Z,25.77
2018-12-06T16:19:43.175Z,35.43
2018-12-06T16:22:11.943Z,32.17
2018-12-06T16:24:40.764Z,35.73
2018-12-06T16:27:09.455Z,30.90
2018-12-06T16:29:38.162Z,35.90
2018-12-06T16:32:06.925Z,31.53
2018-12-06T16:34:35.663Z,36.07
2018-12-06T16:37:04.483Z,29.83
2018-12-06T16:39:33.247Z,34.27
2018-12-06T16:42:02.072Z,33.50
2018-12-06T16:44:30.782Z,31.33
2018-12-06T16:46:59.577Z,30.60
2018-12-06T16:49:28.792Z,31.17
2018-12-06T16:51:57.796Z,32.03
2018-12-06T16:54:26.531Z,35.17
2018-12-06T16:56:55.307Z,38.17
2018-12-06T16:59:24.038Z,34.43
2018-12-06T17:01:52.790Z,33.17
2018-12-06T17:04:21.657Z,30.70
2018-12-06T17:06:50.479Z,32.90
2018-12-06T17:09:19.251Z,31.53
2018-12-06T17:11:48.051Z,28.90
2018-12-06T17:14:16.852Z,27.57
2018-12-06T17:16:45.634Z,30.47
2018-12-06T17:19:14.420Z,28.73
2018-12-06T17:21:43.206Z,28.07
2018-12-06T17:24:11.918Z,32.27
2018-12-06T17:26:40.802Z,24.27
2018-12-06T17:29:09.579Z,29.13
2018-12-06T17:31:38.354Z,25.30
2018-12-06T17:34:07.254Z,21.67
2018-12-06T17:36:36.107Z,25.50
2018-12-06T17:39:07.163Z,25.10
2018-12-06T17:41:37.866Z,24.30
2018-12-06T17:44:06.697Z,26.67
2018-12-06T17:46:35.444Z,22.73
2018-12-06T17:49:04.410Z,26.57
2018-12-06T17:51:33.224Z,27.57
2018-12-06T17:54:01.972Z,25.43
2018-12-06T17:56:30.775Z,30.10
2018-12-06T17:58:59.495Z,28.47
2018-12-06T18:01:28.466Z,26.80
2018-12-06T18:03:57.323Z,27.50
2018-12-06T18:06:26.151Z,28.93
2018-12-06T18:08:54.973Z,26.07
2018-12-06T18:11:23.786Z,26.03
2018-12-06T18:13:52.607Z,28.77
2018-12-06T18:16:21.440Z,29.43
2018-12-06T18:18:50.181Z,26.30
2018-12-06T18:21:19.299Z,30.20
2018-12-06T18:23:48.126Z,28.07
2018-12-06T18:26:17.055Z,28.30
2018-12-06T18:28:45.843Z,29.90
2018-12-06T18:31:14.582Z,30.60
2018-12-06T18:33:43.400Z,29.13
2018-12-06T18:36:12.209Z,28.10
2018-12-06T18:38:41.016Z,30.27
2018-12-06T18:41:09.898Z,27.40
2018-12-06T18:43:38.738Z,32.80
2018-12-06T18:46:07.476Z,31.30
2018-12-06T18:48:36.503Z,29.67
2018-12-06T18:51:05.307Z,32.00
2018-12-06T18:53:34.414Z,32.80
2018-12-06T18:56:03.255Z,33.63
2018-12-06T18:58:34.499Z,29.40
2018-12-06T19:01:02.647Z,32.63
2018-12-06T19:03:31.497Z,36.37
2018-12-06T19:06:00.389Z,34.13
2018-12-06T19:08:29.245Z,36.70
2018-12-06T19:10:57.979Z,36.60
2018-12-06T19:13:26.842Z,36.77
2018-12-06T19:15:55.683Z,39.73
2018-12-06T19:18:24.343Z,37.70
2018-12-06T19:20:53.131Z,40.23
2018-12-06T19:23:21.954Z,40.83
2018-12-06T19:25:50.783Z,37.47
2018-12-06T19:28:19.601Z,35.90
2018-12-06T19:30:48.469Z,38.07
2018-12-06T19:33:17.203Z,33.17
2018-12-06T19:35:45.925Z,38.80
2018-12-06T19:38:14.658Z,40.30
2018-12-06T19:40:43.457Z,36.13
2018-12-06T19:43:12.234Z,37.30
2018-12-06T19:45:40.999Z,37.30
2018-12-06T19:48:09.770Z,39.27
2018-12-06T19:50:38.571Z,40.80
2018-12-06T19:53:07.330Z,34.80
2018-12-06T19:55:36.151Z,35.10
2018-12-06T19:58:04.970Z,37.40
2018-12-06T20:00:34.350Z,33.00
2018-12-06T20:03:03.226Z,31.27
2018-12-06T20:05:32.075Z,35.17
2018-12-06T20:08:00.952Z,33.17
2018-12-06T20:10:29.758Z,37.33
2018-12-06T20:12:58.547Z,38.47
2018-12-06T20:15:27.215Z,30.57
2018-12-06T20:17:56.115Z,34.93
2018-12-06T20:20:24.920Z,31.57
2018-12-06T20:22:53.656Z,36.77
2018-12-06T20:25:22.391Z,33.73
2018-12-06T20:27:51.267Z,35.50
2018-12-06T20:30:20.066Z,35.20
2018-12-06T20:32:48.816Z,34.40
2018-12-06T20:35:17.620Z,30.97
2018-12-06T20:37:47.237Z,35.93
2018-12-06T20:40:15.964Z,35.17
2018-12-06T20:42:44.684Z,42.50
2018-12-06T20:45:13.346Z,37.17
2018-12-06T20:47:42.071Z,35.37
2018-12-06T20:50:10.896Z,46.33
2018-12-06T20:52:39.755Z,35.70
2018-12-06T20:55:08.503Z,32.10
2018-12-06T20:57:37.699Z,35.47
2018-12-06T21:00:07.050Z,35.40
2018-12-06T21:02:36.261Z,38.23
2018-12-06T21:05:05.184Z,31.50
2018-12-06T21:07:33.959Z,39.27
2018-12-06T21:10:02.828Z,34.40
2018-12-06T21:12:31.595Z,39.17
2018-12-06T21:15:00.672Z,37.73
2018-12-06T21:17:29.461Z,33.17
2018-12-06T21:19:58.266Z,30.77
2018-12-06T21:22:27.020Z,33.30
2018-12-06T21:24:55.844Z,39.73
2018-12-06T21:27:24.634Z,32.50
2018-12-06T21:29:53.395Z,35.60
2018-12-06T21:32:22.223Z,32.17
2018-12-06T21:34:52.972Z,32.87
2018-12-06T21:37:21.752Z,33.63
2018-12-06T21:39:52.459Z,33.10
2018-12-06T21:42:21.147Z,32.67
2018-12-06T21:44:49.932Z,33.23
2018-12-06T21:47:25.525Z,36.70
2018-12-06T21:49:55.030Z,35.70
2018-12-06T21:52:23.923Z,32.03
2018-12-06T21:54:52.708Z,32.03
2018-12-06T21:57:21.437Z,32.60
2018-12-06T21:59:50.150Z,34.57
2018-12-06T22:02:24.801Z,38.73
2018-12-06T22:04:53.579Z,32.33
2018-12-06T22:07:22.344Z,38.53
2018-12-06T22:09:51.148Z,40.53
2018-12-06T22:12:20.147Z,37.07
2018-12-06T22:14:48.987Z,47.40
2018-12-06T22:17:17.702Z,40.27
2018-12-06T22:19:46.589Z,39.67
2018-12-06T22:22:15.382Z,41.93
2018-12-06T22:24:44.131Z,36.37
2018-12-06T22:27:12.920Z,38.23
2018-12-06T22:29:41.739Z,36.67
2018-12-06T22:32:10.491Z,35.10
2018-12-06T22:34:39.277Z,34.63
2018-12-06T22:37:08.003Z,34.30
2018-12-06T22:39:36.775Z,31.90
2018-12-06T22:42:06.407Z,35.83
2018-12-06T22:44:35.219Z,35.77
2018-12-06T22:47:04.047Z,34.30
2018-12-06T22:49:32.748Z,37.00
2018-12-06T22:52:01.655Z,35.43
2018-12-06T22:54:30.354Z,36.00
2018-12-06T22:56:59.179Z,36.07
2018-12-06T22:59:34.503Z,30.87
2018-12-06T23:02:03.328Z,33.27
2018-12-06T23:04:32.192Z,35.87
2018-12-06T23:07:00.895Z,36.43
2018-12-06T23:09:29.687Z,37.33
2018-12-06T23:11:58.483Z,34.47
2018-12-06T23:14:27.212Z,35.30
2018-12-06T23:16:55.997Z,41.10
2018-12-06T23:19:24.746Z,36.60
2018-12-06T23:21:53.559Z,34.53
2018-12-06T23:24:22.749Z,33.30
2018-12-06T23:26:51.521Z,36.10
2018-12-06T23:29:20.198Z,44.40
2018-12-06T23:31:49.018Z,35.27
2018-12-06T23:34:17.739Z,40.10
2018-12-06T23:36:46.572Z,33.40
2018-12-06T23:39:15.284Z,32.27
2018-12-06T23:41:44.087Z,31.47
2018-12-06T23:44:12.806Z,34.67
2018-12-06T23:46:41.542Z,33.07
2018-12-06T23:49:10.320Z,31.40
2018-12-06T23:51:39.451Z,33.20
2018-12-06T23:54:08.243Z,30.10
2018-12-06T23:56:37.034Z,30.90
2018-12-06T23:59:05.851Z,32.03
